Time;durP1;ratioP1;P1;durP2;ratioP2;P2;SDS_P1;SDS_P2;PMS_P1;PMS_P2;Temp;Humidity;BMP_temperature;BMP_pressure;BME280_temperature;BME280_humidity;BME280_pressure;Samples;Min_cycle;Max_cycle;Signal;HPM_P1;HPM_P2
2023/07/08 00:00:43;;;;;;;10.43;6.30;;;;;;;24.86;38.19;96369.31;5040652;28;20023;-88
2023/07/08 00:03:09;;;;;;;11.02;6.68;;;;;;;24.87;38.31;96367.44;5036038;28;20079;-88
2023/07/08 00:05:35;;;;;;;12.75;6.20;;;;;;;25.01;37.76;96366.00;5055921;28;20024;-88
2023/07/08 00:08:01;;;;;;;12.10;6.70;;;;;;;25.06;37.77;96373.38;5024151;28;20032;-88
2023/07/08 00:10:28;;;;;;;10.95;6.57;;;;;;;25.12;37.46;96367.84;5033359;28;20528;-88
2023/07/08 00:12:56;;;;;;;10.18;6.18;;;;;;;25.08;37.45;96366.69;5042611;28;20036;-88
2023/07/08 00:15:25;;;;;;;9.10;5.80;;;;;;;25.15;37.49;96367.34;5037379;28;20055;-88
2023/07/08 00:17:51;;;;;;;11.00;6.32;;;;;;;24.99;38.13;96365.47;5040551;28;20114;-88
2023/07/08 00:20:30;;;;;;;9.05;6.28;;;;;;;25.06;38.02;96363.41;5043698;28;20020;-88
2023/07/08 00:22:56;;;;;;;9.57;6.00;;;;;;;25.06;37.80;96363.41;5045531;28;20021;-88
2023/07/08 00:25:22;;;;;;;10.25;6.50;;;;;;;24.83;38.43;96353.66;5046207;28;20016;-88
2023/07/08 00:27:48;;;;;;;11.50;6.13;;;;;;;24.91;38.26;96355.91;5029252;28;20501;-88
2023/07/08 00:30:25;;;;;;;15.02;5.82;;;;;;;24.88;38.66;96353.75;5036044;28;20016;-88
2023/07/08 00:32:55;;;;;;;11.77;6.28;;;;;;;24.68;39.03;96346.19;5027983;28;20056;-88
2023/07/08 00:35:27;;;;;;;9.05;5.72;;;;;;;24.57;39.22;96338.19;5040032;28;20104;-88
2023/07/08 00:37:53;;;;;;;8.90;5.25;;;;;;;24.64;39.77;96333.47;5039889;28;20486;-88
2023/07/08 00:40:21;;;;;;;8.88;5.40;;;;;;;24.73;39.77;96332.00;5048557;28;20056;-88
2023/07/08 00:42:48;;;;;;;8.77;6.05;;;;;;;24.86;39.64;96330.84;5035986;28;20475;-88
2023/07/08 00:45:28;;;;;;;10.02;6.32;;;;;;;25.10;39.09;96332.25;5032352;28;20389;-89
2023/07/08 00:47:56;;;;;;;10.25;5.50;;;;;;;24.70;40.20;96341.34;5031918;28;20029;-88
2023/07/08 00:50:22;;;;;;;8.02;5.38;;;;;;;24.72;40.22;96335.75;5028020;28;20131;-88
2023/07/08 00:52:47;;;;;;;9.82;5.82;;;;;;;24.86;40.05;96342.41;5036414;28;20084;-88
2023/07/08 00:55:14;;;;;;;9.60;5.70;;;;;;;24.58;40.94;96340.66;5049238;28;20102;-88
2023/07/08 00:57:44;;;;;;;8.48;5.72;;;;;;;24.68;41.36;96337.28;5038677;28;20093;-88
2023/07/08 01:00:15;;;;;;;9.63;5.93;;;;;;;24.46;42.00;96343.41;5035960;28;20503;-88
2023/07/08 01:02:54;;;;;;;11.85;5.70;;;;;;;24.43;42.32;96337.72;5046566;28;20033;-88
2023/07/08 01:05:25;;;;;;;9.82;6.30;;;;;;;24.47;42.67;96344.22;5040981;28;20101;-88
2023/07/08 01:07:55;;;;;;;11.15;6.25;;;;;;;24.33;43.16;96342.91;5035333;28;20021;-88
2023/07/08 01:10:27;;;;;;;8.82;5.50;;;;;;;24.23;43.50;96341.66;5029524;28;20017;-88
2023/07/08 01:12:59;;;;;;;8.97;5.73;;;;;;;24.32;43.64;96358.22;5030703;28;20082;-88
2023/07/08 01:15:33;;;;;;;10.73;5.63;;;;;;;24.24;43.94;96363.97;5030874;28;21022;-88
2023/07/08 01:17:59;;;;;;;8.70;5.53;;;;;;;23.91;44.69;96353.97;5041008;28;20012;-88
2023/07/08 01:20:24;;;;;;;7.82;5.15;;;;;;;23.96;45.40;96360.25;5046523;28;20137;-89
2023/07/08 01:22:50;;;;;;;8.80;5.13;;;;;;;23.84;45.52;96359.50;5023053;28;20104;-88
2023/07/08 01:25:21;;;;;;;9.20;5.88;;;;;;;23.89;45.81;96353.41;5027432;28;20021;-88
2023/07/08 01:27:52;;;;;;;10.00;5.53;;;;;;;24.07;45.25;96347.81;5027682;28;20021;-88
2023/07/08 01:30:17;;;;;;;7.90;5.22;;;;;;;24.23;45.07;96341.66;5031263;28;20112;-88
2023/07/08 01:32:49;;;;;;;9.65;5.55;;;;;;;24.38;44.44;96345.66;5044495;28;20028;-88
2023/07/08 01:35:15;;;;;;;9.23;6.07;;;;;;;24.05;45.65;96344.59;5025602;28;20049;-88
2023/07/08 01:37:46;;;;;;;9.85;5.60;;;;;;;23.96;46.14;96341.47;5012199;28;20025;-89
2023/07/08 01:40:21;;;;;;;8.65;5.25;;;;;;;24.08;46.00;96341.41;5012611;28;20021;-88
2023/07/08 01:42:47;;;;;;;9.43;5.60;;;;;;;23.96;46.70;96343.34;5010257;28;20052;-88
2023/07/08 01:45:15;;;;;;;8.02;5.10;;;;;;;24.20;46.08;96341.34;5010068;28;20025;-88
2023/07/08 01:48:06;;;;;;;10.57;5.30;;;;;;;24.10;46.11;96333.91;4999124;28;20064;-88
2023/07/08 01:50:36;;;;;;;9.00;5.00;;;;;;;24.22;46.10;96331.16;5014566;28;20144;-88
2023/07/08 01:53:11;;;;;;;9.43;5.72;;;;;;;24.00;47.07;96334.53;5015846;28;20067;-88
2023/07/08 01:55:37;;;;;;;10.38;5.40;;;;;;;23.92;47.42;96336.81;5027407;28;20040;-88
2023/07/08 01:58:03;;;;;;;9.63;5.57;;;;;;;23.97;47.55;96324.28;5052544;28;20395;-88
2023/07/08 02:00:28;;;;;;;8.82;5.57;;;;;;;24.11;47.20;96324.81;5017682;28;20403;-88
2023/07/08 02:02:54;;;;;;;8.35;5.43;;;;;;;24.17;46.83;96321.13;5012209;28;20115;-88
2023/07/08 02:05:23;;;;;;;8.27;5.35;;;;;;;24.14;47.07;96324.28;5022239;28;20021;-88
2023/07/08 02:07:48;;;;;;;15.80;6.53;;;;;;;24.12;47.25;96323.75;5026020;28;20083;-88
2023/07/08 02:10:14;;;;;;;7.60;4.82;;;;;;;24.22;47.26;96323.91;5014580;28;20029;-88
2023/07/08 02:12:40;;;;;;;8.93;5.70;;;;;;;24.16;47.81;96326.75;5024289;28;20075;-88
2023/07/08 02:15:06;;;;;;;9.50;5.93;;;;;;;24.09;47.58;96316.16;5014003;28;20260;-87
2023/07/08 02:17:32;;;;;;;9.88;5.28;;;;;;;24.04;48.72;96326.00;5042456;28;20067;-88
2023/07/08 02:19:57;;;;;;;9.30;5.05;;;;;;;24.10;48.10;96323.16;5025562;28;20025;-88
2023/07/08 02:22:26;;;;;;;10.27;5.63;;;;;;;24.16;47.99;96318.69;5008832;28;20024;-88
2023/07/08 02:24:55;;;;;;;8.80;5.28;;;;;;;24.10;48.15;96322.34;5012875;28;20032;-88
2023/07/08 02:27:20;;;;;;;7.97;5.15;;;;;;;24.06;48.58;96318.53;5015705;28;20109;-88
2023/07/08 02:29:50;;;;;;;7.85;4.80;;;;;;;24.02;48.99;96326.25;5018874;28;20039;-88
2023/07/08 02:32:15;;;;;;;8.07;5.30;;;;;;;24.10;49.26;96331.22;5019031;28;20091;-88
2023/07/08 02:34:41;;;;;;;13.88;5.53;;;;;;;24.14;49.44;96324.28;5009971;28;20487;-88
2023/07/08 02:37:07;;;;;;;8.48;5.30;;;;;;;24.09;49.10;96321.53;5021733;28;20043;-88
2023/07/08 02:39:32;;;;;;;10.35;5.90;;;;;;;23.90;50.19;96325.50;5012574;28;20423;-88
2023/07/08 02:41:58;;;;;;;9.55;5.35;;;;;;;23.80;50.51;96325.31;5012164;28;20021;-88
2023/07/08 02:44:23;;;;;;;8.90;4.78;;;;;;;23.85;51.62;96328.09;5027964;28;20022;-88
2023/07/08 02:46:49;;;;;;;9.65;5.53;;;;;;;23.64;52.86;96335.75;5014579;28;20023;-88
2023/07/08 02:49:15;;;;;;;7.93;4.88;;;;;;;23.44;53.66;96340.69;5015318;28;20028;-89
2023/07/08 02:51:41;;;;;;;10.32;5.25;;;;;;;23.45;54.64;96347.72;5014727;28;20029;-88
2023/07/08 02:54:07;;;;;;;10.52;5.20;;;;;;;23.56;54.07;96341.47;5022392;28;20016;-88
2023/07/08 02:56:32;;;;;;;9.95;6.05;;;;;;;23.75;53.20;96340.28;5018691;28;20029;-88
2023/07/08 02:58:58;;;;;;;10.18;5.78;;;;;;;23.59;54.11;96346.38;5012697;28;20468;-88
2023/07/08 03:01:23;;;;;;;10.77;5.50;;;;;;;23.52;56.54;96343.81;5031991;28;20026;-88
2023/07/08 03:03:50;;;;;;;8.18;5.45;;;;;;;23.45;57.41;96347.72;5018948;28;20022;-88
2023/07/08 03:06:16;;;;;;;7.85;5.20;;;;;;;23.52;57.80;96353.75;5018422;28;20030;-88
2023/07/08 03:08:50;;;;;;;9.73;6.47;;;;;;;23.45;58.01;96355.75;5019611;28;20078;-88
2023/07/08 03:11:16;;;;;;;12.45;8.00;;;;;;;23.57;58.12;96351.16;5033125;28;20116;-88
2023/07/08 03:13:42;;;;;;;14.02;8.35;;;;;;;23.40;59.08;96363.69;5017257;28;20063;-88
2023/07/08 03:16:12;;;;;;;15.25;7.47;;;;;;;23.37;58.59;96364.16;5013497;28;20018;-88
2023/07/08 03:19:14;;;;;;;10.90;6.45;;;;;;;23.32;59.20;96364.06;5023082;28;20502;-88
2023/07/08 03:21:40;;;;;;;9.60;5.70;;;;;;;23.04;59.71;96373.69;5017826;28;20021;-88
2023/07/08 03:24:10;;;;;;;9.25;5.00;;;;;;;22.93;59.28;96372.63;5013096;28;20017;-88
2023/07/08 03:26:40;;;;;;;9.35;5.35;;;;;;;22.94;59.93;96376.94;5022215;28;20392;-88
2023/07/08 03:29:13;;;;;;;9.15;5.53;;;;;;;22.72;60.80;96370.50;5020618;28;20017;-88
2023/07/08 03:31:41;;;;;;;8.35;5.07;;;;;;;22.57;61.47;96370.97;5014767;28;20074;-88
2023/07/08 03:34:10;;;;;;;8.00;4.65;;;;;;;22.71;61.36;96372.38;5013289;28;20072;-88
2023/07/08 03:36:48;;;;;;;8.73;5.25;;;;;;;22.87;60.70;96373.53;5026246;28;20028;-88
2023/07/08 03:39:17;;;;;;;8.77;5.00;;;;;;;22.87;59.91;96368.19;5036673;28;20398;-89
2023/07/08 03:41:43;;;;;;;10.95;5.50;;;;;;;22.96;59.92;96371.34;5014577;28;20119;-89
2023/07/08 03:44:09;;;;;;;7.97;4.95;;;;;;;23.13;59.51;96380.31;5022219;28;20474;-88
2023/07/08 03:46:47;;;;;;;8.45;5.22;;;;;;;23.23;58.39;96377.84;5030343;28;20032;-89
2023/07/08 03:49:21;;;;;;;9.90;5.13;;;;;;;23.01;59.54;96385.69;5014830;28;20104;-89
2023/07/08 03:51:48;;;;;;;9.45;5.50;;;;;;;22.92;60.89;96391.59;5016089;28;20018;-89
2023/07/08 03:54:18;;;;;;;16.88;5.40;;;;;;;22.92;61.26;96383.56;5020635;28;20021;-89
2023/07/08 03:56:44;;;;;;;8.68;5.57;;;;;;;22.89;59.35;96386.72;5015043;28;20375;-89
2023/07/08 03:59:10;;;;;;;8.68;5.22;;;;;;;23.03;59.41;96388.13;5018539;28;20036;-88
2023/07/08 04:01:38;;;;;;;8.60;5.47;;;;;;;23.15;58.50;96398.88;5011732;28;20021;-89
2023/07/08 04:04:04;;;;;;;11.27;5.68;;;;;;;23.22;57.83;96400.38;5024588;28;20023;-88
2023/07/08 04:06:34;;;;;;;9.32;5.25;;;;;;;23.32;57.23;96407.00;5016698;28;20559;-89
2023/07/08 04:09:00;;;;;;;9.48;5.28;;;;;;;23.14;58.90;96392.69;5026100;28;20033;-89
2023/07/08 04:11:26;;;;;;;9.23;5.20;;;;;;;23.48;57.48;96379.44;5010437;28;20025;-89
2023/07/08 04:13:51;;;;;;;8.77;5.30;;;;;;;23.29;58.64;96387.63;5015129;28;20032;-89
2023/07/08 04:16:21;;;;;;;8.38;5.32;;;;;;;22.73;61.43;96388.22;5024551;28;20471;-88
2023/07/08 04:18:50;;;;;;;6.85;4.53;;;;;;;23.31;60.91;96387.41;5020305;28;20116;-88
2023/07/08 04:21:17;;;;;;;9.13;4.97;;;;;;;22.90;63.59;96399.06;5034587;28;20014;-89
2023/07/08 04:23:42;;;;;;;8.52;5.13;;;;;;;22.87;64.20;96380.75;5021382;28;20043;-89
2023/07/08 04:26:08;;;;;;;8.85;5.35;;;;;;;23.32;61.70;96382.84;5025039;28;20026;-88
2023/07/08 04:28:37;;;;;;;8.57;5.53;;;;;;;23.03;63.78;96380.09;5021429;28;20033;-88
2023/07/08 04:31:03;;;;;;;7.30;4.53;;;;;;;23.12;62.20;96388.59;5017692;28;20491;-88
2023/07/08 04:33:29;;;;;;;8.40;5.22;;;;;;;23.09;63.27;96386.38;5019902;28;20112;-89
2023/07/08 04:35:55;;;;;;;8.40;4.93;;;;;;;23.31;63.34;96390.09;5018530;28;20094;-87
2023/07/08 04:38:23;;;;;;;10.45;5.00;;;;;;;23.09;67.14;96381.84;5018219;28;20039;-83
2023/07/08 04:40:50;;;;;;;8.77;5.10;;;;;;;23.80;60.58;96379.00;5026519;28;20036;-84
2023/07/08 04:43:17;;;;;;;8.15;5.50;;;;;;;23.65;60.64;96392.94;5008797;28;20021;-84
2023/07/08 04:45:45;;;;;;;10.27;5.15;;;;;;;23.88;59.83;96394.78;5029989;28;20043;-85
2023/07/08 04:48:15;;;;;;;10.05;5.70;;;;;;;23.82;60.73;96393.03;5029317;28;20064;-84
2023/07/08 04:50:44;;;;;;;8.63;5.43;;;;;;;23.76;60.03;96398.28;5026266;28;20436;-84
2023/07/08 04:53:11;;;;;;;8.70;5.65;;;;;;;23.63;60.04;96393.16;5041786;28;20032;-84
2023/07/08 04:55:39;;;;;;;9.43;5.68;;;;;;;23.90;60.10;96395.31;5010408;28;20039;-84
2023/07/08 04:58:05;;;;;;;12.38;5.30;;;;;;;23.85;60.33;96388.00;5027716;28;20109;-84
2023/07/08 05:00:31;;;;;;;10.38;5.13;;;;;;;23.81;59.82;96391.38;5025220;28;20135;-84
2023/07/08 05:03:04;;;;;;;12.27;5.45;;;;;;;24.05;57.08;96395.63;5005364;28;20056;-84
2023/07/08 05:05:30;;;;;;;9.38;6.03;;;;;;;24.21;57.75;96389.47;5008268;28;20463;-84
2023/07/08 05:07:55;;;;;;;9.70;5.47;;;;;;;24.38;59.26;96400.25;5018305;28;20013;-84
2023/07/08 05:10:22;;;;;;;8.20;5.30;;;;;;;24.21;60.55;96385.94;5019048;28;20474;-83
2023/07/08 05:12:48;;;;;;;9.50;5.20;;;;;;;24.61;58.38;96388.53;5002477;28;20032;-84
2023/07/08 05:15:14;;;;;;;8.73;5.88;;;;;;;24.87;55.13;96386.25;5007552;28;20025;-84
2023/07/08 05:17:40;;;;;;;7.70;4.85;;;;;;;24.88;56.15;96393.25;5019459;28;20032;-84
2023/07/08 05:20:08;;;;;;;8.82;5.05;;;;;;;24.99;56.21;96381.59;5007086;28;20104;-84
2023/07/08 05:22:34;;;;;;;10.75;5.95;;;;;;;24.60;58.93;96386.91;5018709;28;20025;-84
2023/07/08 05:25:00;;;;;;;10.18;5.85;;;;;;;24.56;56.99;96377.72;5017367;28;20414;-83
2023/07/08 05:27:26;;;;;;;9.48;5.00;;;;;;;25.01;56.78;96375.97;4999610;28;20071;-84
2023/07/08 05:29:52;;;;;;;9.20;5.53;;;;;;;24.63;58.19;96378.38;5014296;28;20018;-84
2023/07/08 05:32:18;;;;;;;8.95;5.00;;;;;;;24.55;63.33;96377.97;5006769;28;20071;-84
2023/07/08 05:34:44;;;;;;;9.88;5.57;;;;;;;25.39;60.21;96372.50;5021381;28;20420;-84
2023/07/08 05:37:13;;;;;;;10.95;5.40;;;;;;;25.03;62.08;96380.03;5023273;28;20033;-84
2023/07/08 05:39:39;;;;;;;10.60;6.07;;;;;;;25.60;58.90;96371.66;5015012;28;20017;-84
2023/07/08 05:42:05;;;;;;;9.75;5.22;;;;;;;26.02;57.85;96371.09;5023907;28;20040;-84
2023/07/08 05:44:30;;;;;;;8.73;5.40;;;;;;;25.91;57.46;96369.34;5032030;28;20029;-85
2023/07/08 05:46:56;;;;;;;8.68;5.60;;;;;;;25.87;57.50;96360.16;5039574;28;20030;-84
2023/07/08 05:49:22;;;;;;;9.52;4.78;;;;;;;25.90;59.26;96372.31;5015001;28;20028;-84
2023/07/08 05:51:47;;;;;;;10.98;5.68;;;;;;;26.12;57.81;96356.88;5015807;28;20078;-85
2023/07/08 05:54:13;;;;;;;9.15;5.57;;;;;;;25.72;61.41;96355.41;5018248;28;20029;-83
2023/07/08 05:56:39;;;;;;;8.23;5.15;;;;;;;26.00;58.68;96356.25;5023651;28;20025;-84
2023/07/08 05:59:05;;;;;;;9.75;5.75;;;;;;;26.39;57.01;96353.34;5015457;28;20095;-84
2023/07/08 06:01:31;;;;;;;8.18;5.55;;;;;;;26.18;55.37;96355.06;5008998;28;20491;-85
2023/07/08 06:03:59;;;;;;;8.52;5.32;;;;;;;26.70;55.19;96349.06;5026753;28;20475;-83
2023/07/08 06:06:26;;;;;;;9.40;5.47;;;;;;;27.06;52.78;96351.97;5004315;28;20025;-85
2023/07/08 06:08:52;;;;;;;8.20;5.60;;;;;;;27.45;50.78;96349.78;5022626;28;20082;-85
2023/07/08 06:11:18;;;;;;;8.60;5.28;;;;;;;27.40;49.48;96358.69;5034513;28;20127;-83
2023/07/08 06:13:44;;;;;;;9.60;5.82;;;;;;;27.58;48.05;96353.91;5014609;28;20037;-84
2023/07/08 06:16:09;;;;;;;9.40;5.63;;;;;;;28.17;48.18;96359.78;5023955;28;20021;-85
2023/07/08 06:18:58;;;;;;;7.95;5.20;;;;;;;28.00;46.60;96355.66;5031474;28;20045;-85
2023/07/08 06:21:27;;;;;;;12.65;5.13;;;;;;;27.25;48.66;96366.72;5035709;28;20028;-84
2023/07/08 06:23:53;;;;;;;14.75;6.25;;;;;;;27.20;49.94;96364.00;5055960;28;20033;-84
2023/07/08 06:26:18;;;;;;;8.77;6.03;;;;;;;27.45;50.07;96366.00;5029921;28;20064;-86
2023/07/08 06:28:44;;;;;;;9.75;5.47;;;;;;;28.18;48.24;96365.97;5033959;28;20021;-83
2023/07/08 06:31:10;;;;;;;7.88;5.80;;;;;;;28.31;47.92;96359.25;5021816;28;20131;-88
2023/07/08 06:33:36;;;;;;;8.75;5.28;;;;;;;28.66;46.98;96345.75;5052909;28;20017;-87
2023/07/08 06:36:01;;;;;;;9.68;5.47;;;;;;;29.28;44.90;96341.06;5033942;28;20091;-89
2023/07/08 06:38:27;;;;;;;8.93;6.13;;;;;;;29.97;44.02;96333.16;5014251;28;20025;-88
2023/07/08 06:40:53;;;;;;;8.02;5.35;;;;;;;30.42;42.92;96340.22;5019440;28;20320;-89
2023/07/08 06:43:18;;;;;;;8.38;5.68;;;;;;;30.16;42.47;96346.91;5034341;28;20483;-88
2023/07/08 06:45:49;;;;;;;8.93;6.22;;;;;;;30.45;41.83;96345.09;5018762;28;20024;-87
2023/07/08 06:48:15;;;;;;;8.65;5.60;;;;;;;29.64;42.95;96357.19;5037677;28;20068;-86
2023/07/08 06:50:47;;;;;;;8.57;5.43;;;;;;;30.11;42.91;96355.84;5024707;28;20036;-88
2023/07/08 06:53:14;;;;;;;10.52;6.30;;;;;;;30.00;43.09;96365.16;5010560;28;20075;-86
2023/07/08 06:55:52;;;;;;;8.73;5.75;;;;;;;29.83;43.59;96381.78;5005398;28;20119;-86
2023/07/08 06:58:18;;;;;;;8.60;5.30;;;;;;;29.65;43.06;96390.56;5010939;28;20560;-86
2023/07/08 07:00:44;;;;;;;10.75;5.85;;;;;;;29.63;42.34;96396.22;5012770;28;20033;-85
2023/07/08 07:03:10;;;;;;;7.93;5.35;;;;;;;29.09;44.71;96413.13;5015212;28;20021;-85
2023/07/08 07:05:36;;;;;;;9.73;6.10;;;;;;;28.96;45.63;96428.00;5025122;28;20067;-85
2023/07/08 07:08:01;;;;;;;9.00;5.68;;;;;;;28.79;46.29;96414.75;5057893;28;20021;-85
2023/07/08 07:10:28;;;;;;;9.55;5.10;;;;;;;30.54;42.41;96403.06;5030153;28;20072;-85
2023/07/08 07:12:54;;;;;;;9.20;5.30;;;;;;;31.45;40.40;96399.84;5022064;28;20029;-83
2023/07/08 07:15:32;;;;;;;8.30;5.55;;;;;;;32.23;37.97;96408.72;5030480;28;20090;-85
2023/07/08 07:17:57;;;;;;;8.35;5.72;;;;;;;33.06;36.84;96410.72;5008230;28;20116;-86
2023/07/08 07:20:23;;;;;;;8.90;6.03;;;;;;;33.56;35.88;96410.91;5036518;28;20110;-86
2023/07/08 07:22:49;;;;;;;8.60;5.65;;;;;;;32.90;36.58;96420.25;5021753;28;20380;-86
2023/07/08 07:25:16;;;;;;;8.63;5.50;;;;;;;32.34;38.12;96423.81;5021315;28;20025;-86
2023/07/08 07:27:41;;;;;;;9.30;6.32;;;;;;;32.91;36.24;96424.59;5012720;28;20033;-86
2023/07/08 07:30:07;;;;;;;8.45;5.70;;;;;;;32.38;37.35;96425.63;5021630;28;20088;-86
2023/07/08 07:32:34;;;;;;;9.40;5.65;;;;;;;33.17;35.70;96416.81;5018045;28;20116;-85
2023/07/08 07:35:00;;;;;;;9.85;5.72;;;;;;;32.11;36.84;96420.84;5021009;28;20032;-86
2023/07/08 07:37:25;;;;;;;10.82;6.18;;;;;;;33.93;34.86;96417.28;5026097;28;20020;-85
2023/07/08 07:39:51;;;;;;;8.80;5.57;;;;;;;34.42;33.94;96417.63;5014656;28;20020;-85
2023/07/08 07:42:19;;;;;;;9.85;6.10;;;;;;;35.35;33.57;96420.56;5034669;28;20028;-86
2023/07/08 07:44:45;;;;;;;10.90;6.18;;;;;;;34.59;33.46;96425.19;5011088;28;20034;-86
2023/07/08 07:47:10;;;;;;;10.07;5.75;;;;;;;34.27;33.45;96426.94;5010972;28;20108;-86
2023/07/08 07:49:36;;;;;;;7.03;4.40;;;;;;;33.30;32.58;96432.41;5012109;28;20033;-86
2023/07/08 07:52:03;;;;;;;7.85;4.78;;;;;;;32.43;33.44;96443.03;5017884;28;20052;-85
2023/07/08 07:54:28;;;;;;;8.02;4.60;;;;;;;32.78;33.64;96444.41;5022138;28;20032;-84
2023/07/08 07:56:54;;;;;;;11.95;4.57;;;;;;;31.89;33.89;96448.63;5012090;28;20427;-84
2023/07/08 07:59:21;;;;;;;8.13;4.90;;;;;;;32.11;34.98;96449.97;5030332;28;20114;-84
2023/07/08 08:01:46;;;;;;;9.07;4.88;;;;;;;31.95;35.35;96440.38;5017447;28;20021;-84
2023/07/08 08:04:12;;;;;;;9.25;5.57;;;;;;;31.51;35.26;96449.56;5032506;28;20071;-85
2023/07/08 08:06:38;;;;;;;9.80;5.03;;;;;;;31.87;35.45;96450.81;5018253;28;20025;-84
2023/07/08 08:09:06;;;;;;;9.38;5.07;;;;;;;31.16;36.97;96457.75;5017367;28;20032;-84
2023/07/08 08:11:32;;;;;;;9.13;5.55;;;;;;;31.03;37.08;96461.13;5015731;28;20026;-84
2023/07/08 08:13:58;;;;;;;8.20;5.13;;;;;;;31.94;36.13;96455.88;5010392;28;20025;-84
2023/07/08 08:16:23;;;;;;;8.40;5.20;;;;;;;31.10;37.48;96456.16;5011455;28;20092;-84
2023/07/08 08:18:49;;;;;;;9.25;5.32;;;;;;;31.44;37.37;96461.56;5016039;28;20758;-83
2023/07/08 08:21:15;;;;;;;9.02;5.13;;;;;;;31.08;37.40;96457.53;5009959;28;20085;-83
2023/07/08 08:23:41;;;;;;;9.55;5.57;;;;;;;31.55;36.73;96456.03;5010460;28;20021;-83
2023/07/08 08:26:07;;;;;;;8.82;5.60;;;;;;;31.92;36.03;96458.88;5015472;28;20031;-82
2023/07/08 08:28:32;;;;;;;9.25;5.43;;;;;;;31.51;36.83;96461.22;5016238;28;20037;-83
2023/07/08 08:30:58;;;;;;;10.50;5.50;;;;;;;32.16;36.53;96467.03;5023349;28;20108;-83
2023/07/08 08:33:24;;;;;;;11.25;6.05;;;;;;;32.28;35.85;96471.25;5007924;28;20074;-83
2023/07/08 08:35:53;;;;;;;12.40;6.30;;;;;;;32.51;35.86;96475.03;5023824;28;20026;-84
2023/07/08 08:38:19;;;;;;;9.75;5.75;;;;;;;32.14;36.11;96469.22;5026992;28;20162;-84
2023/07/08 08:40:45;;;;;;;10.65;6.38;;;;;;;33.40;34.27;96468.75;5010522;28;20017;-83
2023/07/08 08:43:15;;;;;;;9.15;5.00;;;;;;;33.71;34.49;96458.13;5028326;28;20091;-84
2023/07/08 08:45:55;;;;;;;9.55;5.43;;;;;;;33.91;33.55;96467.81;5008828;28;20125;-83
2023/07/08 08:48:21;;;;;;;11.23;5.53;;;;;;;32.71;34.70;96479.38;5008150;28;20113;-83
2023/07/08 08:51:02;;;;;;;8.27;5.85;;;;;;;32.98;34.08;96471.34;5029348;28;20112;-83
2023/07/08 08:53:28;;;;;;;11.75;5.45;;;;;;;33.77;33.58;96473.25;5025086;28;20045;-83
2023/07/08 08:56:05;;;;;;;10.30;6.03;;;;;;;33.01;33.65;96478.94;5017534;28;20080;-83
2023/07/08 08:58:39;;;;;;;10.20;5.50;;;;;;;33.70;32.95;96476.41;5010956;28;20483;-83
2023/07/08 09:01:12;;;;;;;8.82;6.00;;;;;;;34.44;32.40;96464.53;5012717;28;20033;-83
2023/07/08 09:03:42;;;;;;;9.05;6.10;;;;;;;33.83;32.54;96466.59;5042677;28;20110;-83
2023/07/08 09:06:21;;;;;;;8.98;5.43;;;;;;;35.29;30.64;96457.38;5007338;28;20029;-84
2023/07/08 09:09:05;;;;;;;8.57;5.50;;;;;;;36.96;29.00;96466.56;5024425;28;20029;-84
2023/07/08 09:11:54;;;;;;;13.00;6.07;;;;;;;36.97;29.22;96470.16;5002858;28;20017;-83
2023/07/08 09:14:28;;;;;;;7.40;5.10;;;;;;;37.13;28.82;96471.25;5004874;28;20041;-84
2023/07/08 09:17:06;;;;;;;8.02;4.80;;;;;;;36.90;29.07;96469.81;5012482;28;20056;-84
2023/07/08 09:19:37;;;;;;;8.57;5.80;;;;;;;37.96;27.60;96470.91;5016775;28;20017;-83
2023/07/08 09:22:06;;;;;;;8.57;6.40;;;;;;;37.66;27.45;96470.03;5014345;28;20053;-84
2023/07/08 09:25:04;;;;;;;9.57;6.03;;;;;;;37.88;27.62;96468.16;5042611;28;20033;-84
2023/07/08 09:27:30;;;;;;;11.23;6.10;;;;;;;37.61;27.94;96466.66;5029428;28;20029;-83
2023/07/08 09:29:56;;;;;;;8.95;5.85;;;;;;;38.34;27.64;96458.25;5028457;28;20025;-85
2023/07/08 09:32:24;;;;;;;9.68;5.82;;;;;;;39.30;26.16;96467.38;5034964;28;20029;-86
2023/07/08 09:34:55;;;;;;;9.15;6.15;;;;;;;37.19;26.88;96469.97;5041397;28;20036;-86
2023/07/08 09:37:29;;;;;;;8.80;5.53;;;;;;;38.34;26.31;96461.00;5037979;28;20025;-85
2023/07/08 09:40:19;;;;;;;8.23;5.10;;;;;;;39.40;24.81;96462.59;5018551;28;20025;-85
2023/07/08 09:42:52;;;;;;;8.60;6.07;;;;;;;38.28;26.11;96463.13;5013952;28;20029;-84
2023/07/08 09:45:22;;;;;;;10.18;6.10;;;;;;;38.18;26.17;96469.81;5017202;28;20030;-83
2023/07/08 09:47:56;;;;;;;9.32;5.97;;;;;;;39.78;24.89;96463.16;5034777;28;20041;-81
2023/07/08 09:50:35;;;;;;;7.57;5.30;;;;;;;39.39;25.01;96467.28;5027087;28;19997;-85
2023/07/08 09:53:01;;;;;;;10.13;5.93;;;;;;;38.97;25.13;96470.09;5019838;28;20035;-83
2023/07/08 09:55:28;;;;;;;8.32;5.75;;;;;;;40.15;24.23;96460.41;5036255;28;20032;-85
2023/07/08 09:57:58;;;;;;;7.82;5.13;;;;;;;39.05;24.28;96462.91;5036716;28;20032;-83
2023/07/08 10:00:33;;;;;;;10.93;6.50;;;;;;;39.08;25.06;96457.53;5017395;28;20499;-84
2023/07/08 10:03:04;;;;;;;9.93;6.20;;;;;;;39.90;25.00;96458.78;5036981;28;20028;-84
2023/07/08 10:05:37;;;;;;;8.10;5.90;;;;;;;40.14;24.86;96458.75;5039186;28;20086;-83
2023/07/08 10:08:13;;;;;;;9.55;7.78;;;;;;;40.64;24.24;96454.03;5039052;28;20033;-85
2023/07/08 10:10:42;;;;;;;11.43;7.85;;;;;;;40.96;23.97;96444.75;5020597;28;20025;-84
2023/07/08 10:13:23;;;;;;;8.82;6.50;;;;;;;41.75;23.27;96451.56;5015356;28;20057;-83
2023/07/08 10:16:04;;;;;;;10.32;6.60;;;;;;;42.43;21.93;96447.72;5024823;28;20086;-84
2023/07/08 10:18:37;;;;;;;8.85;5.60;;;;;;;39.94;23.18;96452.25;5009954;28;20029;-84
2023/07/08 10:21:37;;;;;;;10.18;6.30;;;;;;;39.38;24.24;96451.94;5011530;28;20032;-83
2023/07/08 10:24:30;;;;;;;12.57;7.68;;;;;;;39.53;23.99;96454.00;5007920;28;20044;-84
2023/07/08 10:27:34;;;;;;;9.43;6.20;;;;;;;37.97;25.17;96464.28;5012774;28;20032;-87
2023/07/08 10:30:11;;;;;;;7.68;5.32;;;;;;;38.22;25.15;96454.25;4991752;28;20503;-85
2023/07/08 10:32:46;;;;;;;8.75;5.32;;;;;;;37.05;26.08;96461.91;5028941;28;20033;-84
2023/07/08 10:35:28;;;;;;;8.82;5.45;;;;;;;37.00;26.04;96461.28;5017324;28;20025;-85
2023/07/08 10:38:21;;;;;;;9.05;4.97;;;;;;;37.46;25.52;96457.00;5001140;28;20025;-85
2023/07/08 10:40:58;;;;;;;7.55;5.07;;;;;;;37.49;26.04;96459.91;5014274;28;20025;-83
2023/07/08 10:43:56;;;;;;;9.93;5.38;;;;;;;36.79;26.94;96461.13;5010089;28;20029;-83
2023/07/08 10:47:00;;;;;;;7.57;4.97;;;;;;;36.78;26.84;96463.03;4991485;28;20042;-83
2023/07/08 10:49:59;;;;;;;8.25;4.95;;;;;;;36.44;27.13;96461.03;5012816;28;20028;-85
2023/07/08 10:52:40;;;;;;;11.05;5.80;;;;;;;36.76;26.95;96462.56;5021481;28;20021;-84
2023/07/08 10:55:32;;;;;;;7.85;5.43;;;;;;;36.04;27.48;96465.78;5013524;28;20032;-84
2023/07/08 10:58:13;;;;;;;8.32;5.45;;;;;;;35.36;27.41;96462.41;5015923;28;20459;-84
2023/07/08 11:01:11;;;;;;;9.20;5.63;;;;;;;36.35;26.12;96461.06;5025208;28;20116;-85
2023/07/08 11:04:03;;;;;;;7.63;4.80;;;;;;;36.67;27.13;96456.25;4999942;28;20037;-85
2023/07/08 11:06:50;;;;;;;;;;;;;;;36.48;27.44;96461.22;5020066;28;20033;-84
2023/07/08 11:09:57;;;;;;;10.45;5.53;;;;;;;35.79;27.27;96457.16;5011152;28;19959;-84
2023/07/08 11:13:15;;;;;;;7.13;4.80;;;;;;;35.55;28.99;96462.22;5007532;28;20059;-85
2023/07/08 11:16:05;;;;;;;8.43;4.85;;;;;;;35.26;31.23;96458.00;5003393;28;20041;-84
2023/07/08 11:18:47;;;;;;;8.23;5.22;;;;;;;35.10;31.37;96454.84;5017725;28;20086;-83
2023/07/08 11:21:19;;;;;;;9.57;5.50;;;;;;;34.61;32.21;96458.44;5018783;28;20106;-83
2023/07/08 11:23:56;;;;;;;8.25;5.70;;;;;;;34.31;32.98;96460.75;5028940;28;20525;-82
2023/07/08 11:26:48;;;;;;;11.05;5.30;;;;;;;34.69;32.80;96455.81;5020283;28;20044;-82
2023/07/08 11:29:22;;;;;;;7.88;5.20;;;;;;;33.72;33.66;96455.06;5044159;28;20041;-83
2023/07/08 11:31:49;;;;;;;9.20;5.50;;;;;;;35.50;32.49;96456.84;5014836;28;20025;-82
2023/07/08 11:34:18;;;;;;;11.00;5.30;;;;;;;35.90;31.84;96444.00;5044569;28;20017;-82
2023/07/08 11:36:46;;;;;;;8.90;5.05;;;;;;;37.17;30.44;96453.03;5026419;28;20108;-83
2023/07/08 11:39:28;;;;;;;9.32;5.53;;;;;;;37.61;29.44;96450.19;5012084;28;20028;-82
2023/07/08 11:42:13;;;;;;;9.02;5.25;;;;;;;36.21;29.39;96443.94;5031620;28;20506;-83
2023/07/08 11:44:47;;;;;;;11.02;6.05;;;;;;;36.38;29.34;96442.34;5027303;28;20033;-83
2023/07/08 11:47:20;;;;;;;11.18;5.45;;;;;;;36.65;29.06;96450.28;5029389;28;20083;-83